sensor_id;sensor_type;location;lat;lon;timestamp;P1;durP1;ratioP1;P2;durP2;ratioP2
17596;SDS011;8917;50.942;6.946;2022-09-21T00:00:43;7.57;;;4.47;;
17596;SDS011;8917;50.942;6.946;2022-09-21T00:03:10;7.73;;;4.90;;
17596;SDS011;8917;50.942;6.946;2022-09-21T00:05:37;7.30;;;4.30;;
17596;SDS011;8917;50.942;6.946;2022-09-21T00:08:05;7.50;;;4.23;;
17596;SDS011;8917;50.942;6.946;2022-09-21T00:10:36;6.70;;;3.53;;
17596;SDS011;8917;50.942;6.946;2022-09-21T00:13:03;11.00;;;5.37;;
17596;SDS011;8917;50.942;6.946;2022-09-21T00:15:34;10.07;;;4.53;;
17596;SDS011;8917;50.942;6.946;2022-09-21T00:18:01;7.10;;;4.23;;
17596;SDS011;8917;50.942;6.946;2022-09-21T00:20:28;6.63;;;4.40;;
17596;SDS011;8917;50.942;6.946;2022-09-21T00:22:56;6.07;;;4.17;;
17596;SDS011;8917;50.942;6.946;2022-09-21T00:25:23;7.00;;;4.10;;
17596;SDS011;8917;50.942;6.946;2022-09-21T00:27:50;7.57;;;4.03;;
17596;SDS011;8917;50.942;6.946;2022-09-21T00:30:17;7.83;;;4.60;;
17596;SDS011;8917;50.942;6.946;2022-09-21T00:32:46;5.83;;;3.57;;
17596;SDS011;8917;50.942;6.946;2022-09-21T00:35:13;6.27;;;3.83;;
17596;SDS011;8917;50.942;6.946;2022-09-21T00:37:41;7.87;;;4.17;;
17596;SDS011;8917;50.942;6.946;2022-09-21T00:40:11;4.27;;;3.50;;
17596;SDS011;8917;50.942;6.946;2022-09-21T00:42:38;7.57;;;3.53;;
17596;SDS011;8917;50.942;6.946;2022-09-21T00:45:06;6.93;;;3.60;;
17596;SDS011;8917;50.942;6.946;2022-09-21T00:47:46;6.97;;;3.77;;
17596;SDS011;8917;50.942;6.946;2022-09-21T00:50:15;6.37;;;3.80;;
17596;SDS011;8917;50.942;6.946;2022-09-21T00:52:43;7.57;;;4.10;;
17596;SDS011;8917;50.942;6.946;2022-09-21T00:55:12;5.57;;;3.80;;
17596;SDS011;8917;50.942;6.946;2022-09-21T00:57:42;6.70;;;4.20;;
17596;SDS011;8917;50.942;6.946;2022-09-21T01:00:10;8.00;;;4.70;;
17596;SDS011;8917;50.942;6.946;2022-09-21T01:02:38;6.33;;;4.17;;
17596;SDS011;8917;50.942;6.946;2022-09-21T01:05:08;6.60;;;3.73;;
17596;SDS011;8917;50.942;6.946;2022-09-21T01:07:36;5.70;;;3.63;;
17596;SDS011;8917;50.942;6.946;2022-09-21T01:10:06;6.07;;;3.73;;
17596;SDS011;8917;50.942;6.946;2022-09-21T01:12:43;9.27;;;4.27;;
17596;SDS011;8917;50.942;6.946;2022-09-21T01:15:15;8.20;;;4.27;;
17596;SDS011;8917;50.942;6.946;2022-09-21T01:17:46;10.00;;;4.27;;
17596;SDS011;8917;50.942;6.946;2022-09-21T01:20:28;5.13;;;3.37;;
17596;SDS011;8917;50.942;6.946;2022-09-21T01:23:05;8.00;;;3.50;;
17596;SDS011;8917;50.942;6.946;2022-09-21T01:25:36;9.33;;;3.73;;
17596;SDS011;8917;50.942;6.946;2022-09-21T01:28:07;6.77;;;4.10;;
17596;SDS011;8917;50.942;6.946;2022-09-21T01:30:37;8.23;;;4.03;;
17596;SDS011;8917;50.942;6.946;2022-09-21T01:33:08;4.67;;;3.53;;
17596;SDS011;8917;50.942;6.946;2022-09-21T01:35:36;5.57;;;3.90;;
17596;SDS011;8917;50.942;6.946;2022-09-21T01:38:05;9.27;;;3.73;;
17596;SDS011;8917;50.942;6.946;2022-09-21T01:40:35;7.10;;;3.70;;
17596;SDS011;8917;50.942;6.946;2022-09-21T01:43:08;6.67;;;3.83;;
17596;SDS011;8917;50.942;6.946;2022-09-21T01:45:42;7.63;;;3.70;;
17596;SDS011;8917;50.942;6.946;2022-09-21T01:48:10;7.50;;;4.00;;
17596;SDS011;8917;50.942;6.946;2022-09-21T01:50:40;6.07;;;3.67;;
17596;SDS011;8917;50.942;6.946;2022-09-21T01:53:10;6.03;;;3.87;;
17596;SDS011;8917;50.942;6.946;2022-09-21T01:55:40;5.90;;;3.70;;
17596;SDS011;8917;50.942;6.946;2022-09-21T01:58:10;7.77;;;3.37;;
17596;SDS011;8917;50.942;6.946;2022-09-21T02:00:41;8.23;;;4.13;;
17596;SDS011;8917;50.942;6.946;2022-09-21T02:03:13;8.70;;;4.00;;
17596;SDS011;8917;50.942;6.946;2022-09-21T02:05:42;6.83;;;3.63;;
17596;SDS011;8917;50.942;6.946;2022-09-21T02:08:09;8.10;;;3.57;;
17596;SDS011;8917;50.942;6.946;2022-09-21T02:10:38;8.17;;;3.80;;
17596;SDS011;8917;50.942;6.946;2022-09-21T02:13:06;4.90;;;3.47;;
17596;SDS011;8917;50.942;6.946;2022-09-21T02:15:37;4.40;;;3.57;;
17596;SDS011;8917;50.942;6.946;2022-09-21T02:18:10;6.37;;;3.43;;
17596;SDS011;8917;50.942;6.946;2022-09-21T02:20:44;7.67;;;3.67;;
17596;SDS011;8917;50.942;6.946;2022-09-21T02:23:14;7.63;;;3.53;;
17596;SDS011;8917;50.942;6.946;2022-09-21T02:25:47;5.13;;;3.73;;
17596;SDS011;8917;50.942;6.946;2022-09-21T02:28:18;6.57;;;3.40;;
17596;SDS011;8917;50.942;6.946;2022-09-21T02:30:50;8.97;;;4.07;;
17596;SDS011;8917;50.942;6.946;2022-09-21T02:33:23;7.83;;;3.97;;
17596;SDS011;8917;50.942;6.946;2022-09-21T02:35:53;7.70;;;3.50;;
17596;SDS011;8917;50.942;6.946;2022-09-21T02:38:22;6.00;;;3.80;;
17596;SDS011;8917;50.942;6.946;2022-09-21T02:40:51;5.37;;;3.20;;
17596;SDS011;8917;50.942;6.946;2022-09-21T02:43:21;7.53;;;3.40;;
17596;SDS011;8917;50.942;6.946;2022-09-21T02:45:51;4.27;;;3.10;;
17596;SDS011;8917;50.942;6.946;2022-09-21T02:48:23;8.80;;;4.00;;
17596;SDS011;8917;50.942;6.946;2022-09-21T02:50:52;4.80;;;3.60;;
17596;SDS011;8917;50.942;6.946;2022-09-21T02:53:22;3.77;;;3.30;;
17596;SDS011;8917;50.942;6.946;2022-09-21T02:55:50;7.93;;;3.40;;
17596;SDS011;8917;50.942;6.946;2022-09-21T02:58:18;5.97;;;3.50;;
17596;SDS011;8917;50.942;6.946;2022-09-21T03:00:50;8.30;;;3.53;;
17596;SDS011;8917;50.942;6.946;2022-09-21T03:03:19;5.20;;;3.23;;
17596;SDS011;8917;50.942;6.946;2022-09-21T03:05:49;7.23;;;3.77;;
17596;SDS011;8917;50.942;6.946;2022-09-21T03:08:16;5.97;;;4.03;;
17596;SDS011;8917;50.942;6.946;2022-09-21T03:10:43;6.80;;;4.07;;
17596;SDS011;8917;50.942;6.946;2022-09-21T03:13:14;7.67;;;4.40;;
17596;SDS011;8917;50.942;6.946;2022-09-21T03:15:42;8.40;;;4.47;;
17596;SDS011;8917;50.942;6.946;2022-09-21T03:18:11;6.67;;;4.27;;
17596;SDS011;8917;50.942;6.946;2022-09-21T03:20:40;7.13;;;4.17;;
17596;SDS011;8917;50.942;6.946;2022-09-21T03:23:11;7.30;;;4.10;;
17596;SDS011;8917;50.942;6.946;2022-09-21T03:25:39;6.47;;;3.83;;
17596;SDS011;8917;50.942;6.946;2022-09-21T03:28:06;6.23;;;4.17;;
17596;SDS011;8917;50.942;6.946;2022-09-21T03:30:35;4.93;;;4.40;;
17596;SDS011;8917;50.942;6.946;2022-09-21T03:33:02;7.33;;;4.60;;
17596;SDS011;8917;50.942;6.946;2022-09-21T03:35:32;5.23;;;4.17;;
17596;SDS011;8917;50.942;6.946;2022-09-21T03:38:00;4.47;;;3.97;;
17596;SDS011;8917;50.942;6.946;2022-09-21T03:40:31;5.47;;;3.80;;
17596;SDS011;8917;50.942;6.946;2022-09-21T03:42:58;5.17;;;3.77;;
17596;SDS011;8917;50.942;6.946;2022-09-21T03:45:25;4.87;;;3.63;;
17596;SDS011;8917;50.942;6.946;2022-09-21T03:47:55;6.83;;;3.73;;
17596;SDS011;8917;50.942;6.946;2022-09-21T03:50:23;7.37;;;3.80;;
17596;SDS011;8917;50.942;6.946;2022-09-21T03:52:52;5.57;;;4.07;;
17596;SDS011;8917;50.942;6.946;2022-09-21T03:55:19;5.87;;;3.90;;
17596;SDS011;8917;50.942;6.946;2022-09-21T03:57:48;6.07;;;3.90;;
17596;SDS011;8917;50.942;6.946;2022-09-21T04:00:15;5.77;;;4.27;;
17596;SDS011;8917;50.942;6.946;2022-09-21T04:02:42;5.07;;;3.80;;
17596;SDS011;8917;50.942;6.946;2022-09-21T04:05:10;3.97;;;3.47;;
17596;SDS011;8917;50.942;6.946;2022-09-21T04:07:39;5.10;;;3.87;;
17596;SDS011;8917;50.942;6.946;2022-09-21T04:10:07;5.90;;;3.80;;
17596;SDS011;8917;50.942;6.946;2022-09-21T04:12:37;6.37;;;3.80;;
17596;SDS011;8917;50.942;6.946;2022-09-21T04:15:10;7.20;;;4.43;;
17596;SDS011;8917;50.942;6.946;2022-09-21T04:17:38;6.47;;;4.50;;
17596;SDS011;8917;50.942;6.946;2022-09-21T04:20:06;4.93;;;3.93;;
17596;SDS011;8917;50.942;6.946;2022-09-21T04:22:34;6.57;;;4.10;;
17596;SDS011;8917;50.942;6.946;2022-09-21T04:25:04;5.67;;;4.50;;
17596;SDS011;8917;50.942;6.946;2022-09-21T04:27:32;5.90;;;4.23;;
17596;SDS011;8917;50.942;6.946;2022-09-21T04:29:59;9.83;;;5.10;;
17596;SDS011;8917;50.942;6.946;2022-09-21T04:32:28;5.90;;;4.37;;
17596;SDS011;8917;50.942;6.946;2022-09-21T04:34:55;10.00;;;5.10;;
17596;SDS011;8917;50.942;6.946;2022-09-21T04:37:22;10.40;;;5.00;;
17596;SDS011;8917;50.942;6.946;2022-09-21T04:39:50;11.47;;;5.50;;
17596;SDS011;8917;50.942;6.946;2022-09-21T04:42:17;7.93;;;5.00;;
17596;SDS011;8917;50.942;6.946;2022-09-21T04:44:45;9.13;;;5.17;;
17596;SDS011;8917;50.942;6.946;2022-09-21T04:47:12;13.60;;;5.50;;
17596;SDS011;8917;50.942;6.946;2022-09-21T04:49:41;10.53;;;5.47;;
17596;SDS011;8917;50.942;6.946;2022-09-21T04:52:08;8.10;;;5.50;;
17596;SDS011;8917;50.942;6.946;2022-09-21T04:54:35;8.00;;;5.13;;
17596;SDS011;8917;50.942;6.946;2022-09-21T04:57:03;12.73;;;5.83;;
17596;SDS011;8917;50.942;6.946;2022-09-21T04:59:32;7.13;;;5.47;;
17596;SDS011;8917;50.942;6.946;2022-09-21T05:01:59;9.67;;;6.07;;
17596;SDS011;8917;50.942;6.946;2022-09-21T05:04:28;9.70;;;6.23;;
17596;SDS011;8917;50.942;6.946;2022-09-21T05:06:56;8.23;;;5.10;;
17596;SDS011;8917;50.942;6.946;2022-09-21T05:09:24;8.60;;;5.50;;
17596;SDS011;8917;50.942;6.946;2022-09-21T05:12:08;10.67;;;6.47;;
17596;SDS011;8917;50.942;6.946;2022-09-21T05:14:38;7.77;;;4.80;;
17596;SDS011;8917;50.942;6.946;2022-09-21T05:17:08;6.57;;;4.80;;
17596;SDS011;8917;50.942;6.946;2022-09-21T05:19:35;8.70;;;4.87;;
17596;SDS011;8917;50.942;6.946;2022-09-21T05:22:04;9.33;;;4.97;;
17596;SDS011;8917;50.942;6.946;2022-09-21T05:24:31;10.17;;;4.93;;
17596;SDS011;8917;50.942;6.946;2022-09-21T05:26:59;8.43;;;4.50;;
17596;SDS011;8917;50.942;6.946;2022-09-21T05:29:27;7.70;;;4.50;;
17596;SDS011;8917;50.942;6.946;2022-09-21T05:31:56;6.93;;;4.20;;
17596;SDS011;8917;50.942;6.946;2022-09-21T05:34:31;6.63;;;4.57;;
17596;SDS011;8917;50.942;6.946;2022-09-21T05:37:02;8.17;;;4.27;;
17596;SDS011;8917;50.942;6.946;2022-09-21T05:39:33;8.20;;;4.63;;
17596;SDS011;8917;50.942;6.946;2022-09-21T05:42:00;5.83;;;4.17;;
17596;SDS011;8917;50.942;6.946;2022-09-21T05:44:28;6.13;;;4.60;;
17596;SDS011;8917;50.942;6.946;2022-09-21T05:46:57;7.23;;;4.70;;
17596;SDS011;8917;50.942;6.946;2022-09-21T05:49:28;6.93;;;4.50;;
17596;SDS011;8917;50.942;6.946;2022-09-21T05:52:00;9.13;;;4.90;;
17596;SDS011;8917;50.942;6.946;2022-09-21T05:54:33;6.77;;;5.00;;
17596;SDS011;8917;50.942;6.946;2022-09-21T05:57:07;6.50;;;4.77;;
17596;SDS011;8917;50.942;6.946;2022-09-21T05:59:42;8.43;;;5.03;;
17596;SDS011;8917;50.942;6.946;2022-09-21T06:02:16;6.63;;;4.70;;
17596;SDS011;8917;50.942;6.946;2022-09-21T06:04:45;7.87;;;5.00;;
17596;SDS011;8917;50.942;6.946;2022-09-21T06:07:13;6.03;;;5.27;;
17596;SDS011;8917;50.942;6.946;2022-09-21T06:09:42;5.60;;;4.97;;
17596;SDS011;8917;50.942;6.946;2022-09-21T06:12:09;12.53;;;9.10;;
17596;SDS011;8917;50.942;6.946;2022-09-21T06:14:36;8.97;;;5.43;;
17596;SDS011;8917;50.942;6.946;2022-09-21T06:17:04;12.33;;;5.57;;
17596;SDS011;8917;50.942;6.946;2022-09-21T06:19:31;8.70;;;5.83;;
17596;SDS011;8917;50.942;6.946;2022-09-21T06:21:58;8.90;;;5.60;;
17596;SDS011;8917;50.942;6.946;2022-09-21T06:24:25;8.47;;;5.47;;
17596;SDS011;8917;50.942;6.946;2022-09-21T06:26:54;7.87;;;5.70;;
17596;SDS011;8917;50.942;6.946;2022-09-21T06:29:22;9.43;;;5.83;;
17596;SDS011;8917;50.942;6.946;2022-09-21T06:31:50;15.43;;;6.90;;
17596;SDS011;8917;50.942;6.946;2022-09-21T06:34:17;12.50;;;7.13;;
17596;SDS011;8917;50.942;6.946;2022-09-21T06:36:47;15.30;;;7.03;;
17596;SDS011;8917;50.942;6.946;2022-09-21T06:39:14;9.53;;;6.40;;
17596;SDS011;8917;50.942;6.946;2022-09-21T06:41:42;10.17;;;6.50;;
17596;SDS011;8917;50.942;6.946;2022-09-21T06:44:11;10.33;;;6.60;;
17596;SDS011;8917;50.942;6.946;2022-09-21T06:46:38;7.83;;;6.27;;
17596;SDS011;8917;50.942;6.946;2022-09-21T06:49:05;11.57;;;6.50;;
17596;SDS011;8917;50.942;6.946;2022-09-21T06:51:32;10.20;;;6.87;;
17596;SDS011;8917;50.942;6.946;2022-09-21T06:54:00;14.50;;;7.43;;
17596;SDS011;8917;50.942;6.946;2022-09-21T06:56:27;9.23;;;6.73;;
17596;SDS011;8917;50.942;6.946;2022-09-21T06:58:55;10.30;;;7.00;;
17596;SDS011;8917;50.942;6.946;2022-09-21T07:01:24;14.30;;;7.30;;
17596;SDS011;8917;50.942;6.946;2022-09-21T07:03:54;11.90;;;6.50;;
17596;SDS011;8917;50.942;6.946;2022-09-21T07:06:21;11.13;;;6.97;;
17596;SDS011;8917;50.942;6.946;2022-09-21T07:08:50;10.03;;;6.50;;
17596;SDS011;8917;50.942;6.946;2022-09-21T07:11:18;11.27;;;6.43;;
17596;SDS011;8917;50.942;6.946;2022-09-21T07:13:46;10.43;;;6.33;;
17596;SDS011;8917;50.942;6.946;2022-09-21T07:16:13;9.57;;;7.03;;
17596;SDS011;8917;50.942;6.946;2022-09-21T07:18:45;9.43;;;6.77;;
17596;SDS011;8917;50.942;6.946;2022-09-21T07:21:13;9.13;;;7.13;;
17596;SDS011;8917;50.942;6.946;2022-09-21T07:23:40;9.00;;;6.87;;
17596;SDS011;8917;50.942;6.946;2022-09-21T07:26:08;10.60;;;7.47;;
17596;SDS011;8917;50.942;6.946;2022-09-21T07:28:36;14.17;;;7.57;;
17596;SDS011;8917;50.942;6.946;2022-09-21T07:31:07;10.77;;;7.57;;
17596;SDS011;8917;50.942;6.946;2022-09-21T07:33:34;8.93;;;7.17;;
17596;SDS011;8917;50.942;6.946;2022-09-21T07:36:07;10.97;;;8.33;;
17596;SDS011;8917;50.942;6.946;2022-09-21T07:38:35;12.03;;;7.37;;
17596;SDS011;8917;50.942;6.946;2022-09-21T07:41:04;10.10;;;7.70;;
17596;SDS011;8917;50.942;6.946;2022-09-21T07:43:32;10.90;;;8.03;;
17596;SDS011;8917;50.942;6.946;2022-09-21T07:46:00;10.70;;;8.67;;
17596;SDS011;8917;50.942;6.946;2022-09-21T07:48:28;15.80;;;10.50;;
17596;SDS011;8917;50.942;6.946;2022-09-21T07:50:59;17.80;;;9.47;;
17596;SDS011;8917;50.942;6.946;2022-09-21T07:53:30;14.57;;;10.17;;
17596;SDS011;8917;50.942;6.946;2022-09-21T07:56:04;31.13;;;28.30;;
17596;SDS011;8917;50.942;6.946;2022-09-21T07:58:33;11.77;;;9.30;;
17596;SDS011;8917;50.942;6.946;2022-09-21T08:01:18;12.63;;;9.40;;
17596;SDS011;8917;50.942;6.946;2022-09-21T08:03:47;10.30;;;8.33;;
17596;SDS011;8917;50.942;6.946;2022-09-21T08:06:15;11.97;;;9.43;;
17596;SDS011;8917;50.942;6.946;2022-09-21T08:08:44;13.23;;;9.87;;
17596;SDS011;8917;50.942;6.946;2022-09-21T08:11:12;12.47;;;8.90;;
17596;SDS011;8917;50.942;6.946;2022-09-21T08:13:54;12.80;;;9.17;;
17596;SDS011;8917;50.942;6.946;2022-09-21T08:16:22;11.40;;;10.20;;
17596;SDS011;8917;50.942;6.946;2022-09-21T08:18:49;11.13;;;9.73;;
17596;SDS011;8917;50.942;6.946;2022-09-21T08:21:17;14.13;;;10.60;;
17596;SDS011;8917;50.942;6.946;2022-09-21T08:23:48;13.70;;;10.07;;
17596;SDS011;8917;50.942;6.946;2022-09-21T08:26:15;10.10;;;9.10;;
17596;SDS011;8917;50.942;6.946;2022-09-21T08:28:44;12.73;;;9.47;;
17596;SDS011;8917;50.942;6.946;2022-09-21T08:31:14;11.67;;;8.87;;
17596;SDS011;8917;50.942;6.946;2022-09-21T08:33:43;12.77;;;9.20;;
17596;SDS011;8917;50.942;6.946;2022-09-21T08:36:11;10.97;;;9.10;;
17596;SDS011;8917;50.942;6.946;2022-09-21T08:38:38;11.87;;;8.60;;
17596;SDS011;8917;50.942;6.946;2022-09-21T08:41:17;13.17;;;8.83;;
17596;SDS011;8917;50.942;6.946;2022-09-21T08:43:46;10.40;;;8.47;;
17596;SDS011;8917;50.942;6.946;2022-09-21T08:46:16;10.30;;;8.97;;
17596;SDS011;8917;50.942;6.946;2022-09-21T08:48:45;12.37;;;8.70;;
17596;SDS011;8917;50.942;6.946;2022-09-21T08:51:14;13.33;;;9.50;;
17596;SDS011;8917;50.942;6.946;2022-09-21T08:53:43;10.53;;;8.67;;
17596;SDS011;8917;50.942;6.946;2022-09-21T08:56:12;12.33;;;8.80;;
17596;SDS011;8917;50.942;6.946;2022-09-21T08:58:41;14.00;;;9.67;;
17596;SDS011;8917;50.942;6.946;2022-09-21T09:01:20;10.90;;;9.57;;
17596;SDS011;8917;50.942;6.946;2022-09-21T09:03:54;13.23;;;10.63;;
17596;SDS011;8917;50.942;6.946;2022-09-21T09:06:26;13.90;;;8.10;;
17596;SDS011;8917;50.942;6.946;2022-09-21T09:09:00;13.20;;;9.00;;
17596;SDS011;8917;50.942;6.946;2022-09-21T09:11:35;11.33;;;8.10;;
17596;SDS011;8917;50.942;6.946;2022-09-21T09:14:16;11.53;;;8.03;;
17596;SDS011;8917;50.942;6.946;2022-09-21T09:16:49;15.23;;;8.60;;
17596;SDS011;8917;50.942;6.946;2022-09-21T09:19:21;11.07;;;8.40;;
17596;SDS011;8917;50.942;6.946;2022-09-21T09:21:52;12.87;;;10.13;;
17596;SDS011;8917;50.942;6.946;2022-09-21T09:24:24;9.27;;;7.60;;
17596;SDS011;8917;50.942;6.946;2022-09-21T09:26:57;11.13;;;8.17;;
17596;SDS011;8917;50.942;6.946;2022-09-21T09:29:30;13.57;;;9.70;;
17596;SDS011;8917;50.942;6.946;2022-09-21T09:31:58;10.23;;;8.33;;
17596;SDS011;8917;50.942;6.946;2022-09-21T09:34:31;12.70;;;8.17;;
17596;SDS011;8917;50.942;6.946;2022-09-21T09:36:59;12.23;;;8.63;;
17596;SDS011;8917;50.942;6.946;2022-09-21T09:39:33;9.40;;;8.00;;
17596;SDS011;8917;50.942;6.946;2022-09-21T09:42:08;12.30;;;8.40;;
17596;SDS011;8917;50.942;6.946;2022-09-21T09:44:53;10.37;;;7.80;;
17596;SDS011;8917;50.942;6.946;2022-09-21T09:47:26;11.93;;;7.23;;
17596;SDS011;8917;50.942;6.946;2022-09-21T09:50:00;12.50;;;7.90;;
17596;SDS011;8917;50.942;6.946;2022-09-21T09:52:30;12.07;;;7.30;;
17596;SDS011;8917;50.942;6.946;2022-09-21T09:54:58;10.57;;;6.77;;
17596;SDS011;8917;50.942;6.946;2022-09-21T09:57:28;12.00;;;8.20;;
17596;SDS011;8917;50.942;6.946;2022-09-21T09:59:58;9.10;;;6.40;;
17596;SDS011;8917;50.942;6.946;2022-09-21T10:02:33;8.33;;;6.90;;
17596;SDS011;8917;50.942;6.946;2022-09-21T10:05:18;9.57;;;5.73;;
17596;SDS011;8917;50.942;6.946;2022-09-21T10:07:46;8.90;;;5.00;;
17596;SDS011;8917;50.942;6.946;2022-09-21T10:10:28;7.57;;;5.73;;
17596;SDS011;8917;50.942;6.946;2022-09-21T10:13:03;6.50;;;4.27;;
17596;SDS011;8917;50.942;6.946;2022-09-21T10:15:33;5.03;;;4.13;;
17596;SDS011;8917;50.942;6.946;2022-09-21T10:18:09;6.77;;;4.70;;
17596;SDS011;8917;50.942;6.946;2022-09-21T10:20:50;6.60;;;3.93;;
17596;SDS011;8917;50.942;6.946;2022-09-21T10:23:21;5.73;;;3.40;;
17596;SDS011;8917;50.942;6.946;2022-09-21T10:25:52;6.67;;;3.50;;
17596;SDS011;8917;50.942;6.946;2022-09-21T10:28:20;4.10;;;3.20;;
17596;SDS011;8917;50.942;6.946;2022-09-21T10:31:06;4.13;;;2.53;;
17596;SDS011;8917;50.942;6.946;2022-09-21T10:33:34;4.23;;;2.50;;
17596;SDS011;8917;50.942;6.946;2022-09-21T10:36:11;3.17;;;2.13;;
17596;SDS011;8917;50.942;6.946;2022-09-21T10:41:34;6.00;;;2.93;;
17596;SDS011;8917;50.942;6.946;2022-09-21T10:44:10;4.20;;;2.90;;
17596;SDS011;8917;50.942;6.946;2022-09-21T10:46:42;5.87;;;2.23;;
17596;SDS011;8917;50.942;6.946;2022-09-21T10:49:12;5.23;;;3.30;;
17596;SDS011;8917;50.942;6.946;2022-09-21T10:51:41;2.40;;;2.20;;
17596;SDS011;8917;50.942;6.946;2022-09-21T10:54:13;8.00;;;3.00;;
17596;SDS011;8917;50.942;6.946;2022-09-21T10:56:48;5.00;;;2.97;;
17596;SDS011;8917;50.942;6.946;2022-09-21T10:59:21;5.37;;;2.23;;
17596;SDS011;8917;50.942;6.946;2022-09-21T11:01:51;4.30;;;2.30;;
17596;SDS011;8917;50.942;6.946;2022-09-21T11:04:24;8.17;;;2.40;;
17596;SDS011;8917;50.942;6.946;2022-09-21T11:06:55;6.37;;;2.10;;
17596;SDS011;8917;50.942;6.946;2022-09-21T11:09:25;4.70;;;2.10;;
17596;SDS011;8917;50.942;6.946;2022-09-21T11:11:56;4.70;;;2.47;;
17596;SDS011;8917;50.942;6.946;2022-09-21T11:14:29;5.17;;;2.70;;
17596;SDS011;8917;50.942;6.946;2022-09-21T11:17:06;5.60;;;2.20;;
17596;SDS011;8917;50.942;6.946;2022-09-21T11:19:35;7.20;;;2.63;;
17596;SDS011;8917;50.942;6.946;2022-09-21T11:22:06;4.77;;;2.60;;
17596;SDS011;8917;50.942;6.946;2022-09-21T11:24:36;5.80;;;3.10;;
17596;SDS011;8917;50.942;6.946;2022-09-21T11:27:08;4.53;;;3.17;;
17596;SDS011;8917;50.942;6.946;2022-09-21T11:29:37;4.97;;;3.03;;
17596;SDS011;8917;50.942;6.946;2022-09-21T11:32:16;5.27;;;3.30;;
17596;SDS011;8917;50.942;6.946;2022-09-21T11:34:55;5.00;;;2.70;;
17596;SDS011;8917;50.942;6.946;2022-09-21T11:37:27;5.10;;;2.80;;
17596;SDS011;8917;50.942;6.946;2022-09-21T11:40:00;6.57;;;2.70;;
17596;SDS011;8917;50.942;6.946;2022-09-21T11:42:34;5.83;;;2.50;;
17596;SDS011;8917;50.942;6.946;2022-09-21T11:45:06;4.50;;;2.63;;
17596;SDS011;8917;50.942;6.946;2022-09-21T11:47:45;5.37;;;2.70;;
17596;SDS011;8917;50.942;6.946;2022-09-21T11:50:25;4.60;;;2.40;;
17596;SDS011;8917;50.942;6.946;2022-09-21T11:52:57;4.30;;;3.07;;
17596;SDS011;8917;50.942;6.946;2022-09-21T11:55:38;4.97;;;2.20;;
17596;SDS011;8917;50.942;6.946;2022-09-21T11:58:10;4.27;;;2.80;;
17596;SDS011;8917;50.942;6.946;2022-09-21T12:00:43;5.37;;;2.90;;
17596;SDS011;8917;50.942;6.946;2022-09-21T12:03:24;4.97;;;2.20;;
17596;SDS011;8917;50.942;6.946;2022-09-21T12:06:01;5.20;;;2.40;;
17596;SDS011;8917;50.942;6.946;2022-09-21T12:08:38;3.10;;;1.97;;
17596;SDS011;8917;50.942;6.946;2022-09-21T12:11:11;3.63;;;1.97;;
17596;SDS011;8917;50.942;6.946;2022-09-21T12:13:44;2.77;;;1.80;;
17596;SDS011;8917;50.942;6.946;2022-09-21T12:16:15;3.30;;;1.90;;
17596;SDS011;8917;50.942;6.946;2022-09-21T12:18:45;5.20;;;2.47;;
17596;SDS011;8917;50.942;6.946;2022-09-21T12:21:16;4.00;;;1.80;;
17596;SDS011;8917;50.942;6.946;2022-09-21T12:23:47;5.80;;;2.30;;
17596;SDS011;8917;50.942;6.946;2022-09-21T12:26:26;3.97;;;2.00;;
17596;SDS011;8917;50.942;6.946;2022-09-21T12:28:59;5.40;;;1.60;;
17596;SDS011;8917;50.942;6.946;2022-09-21T12:31:28;5.17;;;1.70;;
17596;SDS011;8917;50.942;6.946;2022-09-21T12:34:00;4.83;;;2.07;;
17596;SDS011;8917;50.942;6.946;2022-09-21T12:36:32;3.70;;;1.77;;
17596;SDS011;8917;50.942;6.946;2022-09-21T12:39:02;2.17;;;1.43;;
17596;SDS011;8917;50.942;6.946;2022-09-21T12:41:33;3.80;;;2.10;;
17596;SDS011;8917;50.942;6.946;2022-09-21T12:44:04;5.37;;;2.20;;
17596;SDS011;8917;50.942;6.946;2022-09-21T12:46:40;4.97;;;1.60;;
17596;SDS011;8917;50.942;6.946;2022-09-21T12:49:14;3.07;;;1.90;;
17596;SDS011;8917;50.942;6.946;2022-09-21T12:51:42;3.37;;;1.70;;
17596;SDS011;8917;50.942;6.946;2022-09-21T12:54:15;3.63;;;1.70;;
17596;SDS011;8917;50.942;6.946;2022-09-21T12:56:44;3.07;;;1.80;;
17596;SDS011;8917;50.942;6.946;2022-09-21T12:59:22;3.27;;;1.77;;
17596;SDS011;8917;50.942;6.946;2022-09-21T13:01:51;3.47;;;1.80;;
17596;SDS011;8917;50.942;6.946;2022-09-21T13:04:32;5.83;;;1.63;;
17596;SDS011;8917;50.942;6.946;2022-09-21T13:07:07;4.47;;;2.07;;
17596;SDS011;8917;50.942;6.946;2022-09-21T13:09:39;4.33;;;2.03;;
17596;SDS011;8917;50.942;6.946;2022-09-21T13:12:08;2.23;;;1.40;;
17596;SDS011;8917;50.942;6.946;2022-09-21T13:14:46;3.77;;;2.70;;
17596;SDS011;8917;50.942;6.946;2022-09-21T13:17:19;4.53;;;1.63;;
17596;SDS011;8917;50.942;6.946;2022-09-21T13:19:56;2.57;;;1.43;;
17596;SDS011;8917;50.942;6.946;2022-09-21T13:22:25;5.27;;;1.73;;
17596;SDS011;8917;50.942;6.946;2022-09-21T13:25:00;2.17;;;1.57;;
17596;SDS011;8917;50.942;6.946;2022-09-21T13:30:32;3.27;;;1.90;;
17596;SDS011;8917;50.942;6.946;2022-09-21T13:36:01;2.17;;;1.27;;
17596;SDS011;8917;50.942;6.946;2022-09-21T13:38:30;2.67;;;1.60;;
17596;SDS011;8917;50.942;6.946;2022-09-21T13:40:59;3.77;;;1.57;;
17596;SDS011;8917;50.942;6.946;2022-09-21T13:43:41;3.33;;;1.30;;
17596;SDS011;8917;50.942;6.946;2022-09-21T13:49:00;1.77;;;1.67;;
17596;SDS011;8917;50.942;6.946;2022-09-21T13:51:30;3.80;;;1.53;;
17596;SDS011;8917;50.942;6.946;2022-09-21T13:53:58;3.83;;;1.80;;
17596;SDS011;8917;50.942;6.946;2022-09-21T13:56:28;2.97;;;1.70;;
17596;SDS011;8917;50.942;6.946;2022-09-21T13:58:59;3.73;;;1.93;;
17596;SDS011;8917;50.942;6.946;2022-09-21T14:01:29;3.43;;;1.33;;
17596;SDS011;8917;50.942;6.946;2022-09-21T14:04:01;3.17;;;1.20;;
17596;SDS011;8917;50.942;6.946;2022-09-21T14:06:32;1.45;;;1.10;;
17596;SDS011;8917;50.942;6.946;2022-09-21T14:09:00;4.25;;;1.45;;
17596;SDS011;8917;50.942;6.946;2022-09-21T14:11:29;3.70;;;1.40;;
17596;SDS011;8917;50.942;6.946;2022-09-21T14:14:03;2.40;;;1.10;;
17596;SDS011;8917;50.942;6.946;2022-09-21T14:16:50;4.40;;;1.27;;
17596;SDS011;8917;50.942;6.946;2022-09-21T14:27:40;3.43;;;1.67;;
17596;SDS011;8917;50.942;6.946;2022-09-21T14:30:15;2.88;;;1.67;;
17596;SDS011;8917;50.942;6.946;2022-09-21T14:32:44;3.47;;;1.58;;
17596;SDS011;8917;50.942;6.946;2022-09-21T14:35:14;2.73;;;1.60;;
17596;SDS011;8917;50.942;6.946;2022-09-21T14:37:45;2.90;;;1.60;;
17596;SDS011;8917;50.942;6.946;2022-09-21T14:40:16;3.00;;;1.90;;
17596;SDS011;8917;50.942;6.946;2022-09-21T14:42:49;6.63;;;2.00;;
17596;SDS011;8917;50.942;6.946;2022-09-21T14:45:18;5.07;;;1.60;;
17596;SDS011;8917;50.942;6.946;2022-09-21T14:47:58;3.50;;;1.67;;
17596;SDS011;8917;50.942;6.946;2022-09-21T14:50:29;3.83;;;1.53;;
17596;SDS011;8917;50.942;6.946;2022-09-21T14:53:02;4.50;;;1.63;;
17596;SDS011;8917;50.942;6.946;2022-09-21T14:55:40;4.80;;;1.50;;
17596;SDS011;8917;50.942;6.946;2022-09-21T14:58:15;1.93;;;1.80;;
17596;SDS011;8917;50.942;6.946;2022-09-21T15:00:47;4.20;;;1.50;;
17596;SDS011;8917;50.942;6.946;2022-09-21T15:03:19;2.20;;;1.50;;
17596;SDS011;8917;50.942;6.946;2022-09-21T15:05:54;3.20;;;1.37;;
17596;SDS011;8917;50.942;6.946;2022-09-21T15:08:34;4.67;;;1.60;;
17596;SDS011;8917;50.942;6.946;2022-09-21T15:11:25;4.13;;;1.77;;
17596;SDS011;8917;50.942;6.946;2022-09-21T15:14:06;2.10;;;1.30;;
17596;SDS011;8917;50.942;6.946;2022-09-21T15:16:38;3.33;;;1.47;;
17596;SDS011;8917;50.942;6.946;2022-09-21T15:19:13;4.83;;;3.73;;
17596;SDS011;8917;50.942;6.946;2022-09-21T15:21:45;3.43;;;1.50;;
17596;SDS011;8917;50.942;6.946;2022-09-21T15:24:16;4.23;;;2.50;;
17596;SDS011;8917;50.942;6.946;2022-09-21T15:26:45;4.37;;;1.53;;
17596;SDS011;8917;50.942;6.946;2022-09-21T15:29:18;2.57;;;1.30;;
17596;SDS011;8917;50.942;6.946;2022-09-21T15:31:50;2.63;;;1.60;;
17596;SDS011;8917;50.942;6.946;2022-09-21T15:34:17;4.63;;;1.70;;
17596;SDS011;8917;50.942;6.946;2022-09-21T15:36:44;3.23;;;1.30;;
17596;SDS011;8917;50.942;6.946;2022-09-21T15:39:20;5.60;;;1.70;;